Stations météo

Publicité
Bourg-St-Maurice, France (7497): Température de l'air & dewpoint: 11.02.2019 16:00:00 - 17.02.2019 16:00:00 (CET)Bourg-St-Maurice, France (7497): Température de l'air -20cm & Température de l'air -100cm: 11.02.2019 16:00:00 - 17.02.2019 16:00:00 (CET)Bourg-St-Maurice, France (7497): Vitesse du vent & gusts: 11.02.2019 16:00:00 - 17.02.2019 16:00:00 (CET)Bourg-St-Maurice, France (7497): Direction du vent: 11.02.2019 16:00:00 - 17.02.2019 16:00:00 (CET)Bourg-St-Maurice, France (7497): Ensoleillement: 11.02.2019 16:00:00 - 17.02.2019 16:00:00 (CET)Bourg-St-Maurice, France (7497): Quantités de précipitations: 11.02.2019 16:00:00 - 17.02.2019 16:00:00 (CET)
Date & Time tt [°C] td [°C] tt -20cm [°C] tt -100cm [°C] ff [km/h] ff [knt] fx [km/h] fx [knt] dd sd [min] rr [mm]
17.02.2019 16:00:00 12,2 -3,6 0,8 3,6 5 3 10 5 NNW 60 0,0
17.02.2019 15:00:00 12,5 -1,8 0,8 3,6 0 0 6 3 N 60 0,0
17.02.2019 14:00:00 13,4 -8,5 0,8 3,6 3 2 8 4 N 60 0,0
17.02.2019 13:00:00 14,3 -7,2 0,8 3,6 0 0 6 3 N 60 0,0
17.02.2019 12:00:00 12,6 -5,9 0,8 3,6 2 1 5 3 S 60 0,0
17.02.2019 11:00:00 8,8 -3,8 0,8 3,7 3 1 8 4 SSE 60 0,0
17.02.2019 10:00:00 3,6 -5,6 0,8 3,6 4 2 8 5 NNE 29 0,0
17.02.2019 09:00:00 -1,4 -6,4 0,9 3,7 4 2 5 3 NNE 0 0,0
17.02.2019 08:00:00 -1,6 -6,4 0,9 3,7 2 1 6 4 NNE 0 0,0
17.02.2019 07:00:00 -1,7 -6,3 0,8 3,7 4 2 7 4 N 0 0,0
17.02.2019 06:00:00 -1,5 -6,1 0,8 3,6 4 2 6 4 N 0 0,0
17.02.2019 05:00:00 -1,1 -5,9 0,8 3,7 5 3 9 5 N 0 0,0
17.02.2019 04:00:00 -0,2 -6,0 0,8 3,7 6 4 10 5 NNW 0 0,0
17.02.2019 03:00:00 -0,3 -5,3 0,9 3,7 3 1 6 3 N 0 0,0
17.02.2019 02:00:00 -0,1 -5,3 0,8 3,7 4 2 8 4 N 0 0,0
17.02.2019 01:00:00 0,9 -5,1 0,8 3,7 3 1 7 4 NNW 0 0,0
17.02.2019 00:00:00 1,0 -4,6 0,8 3,7 2 1 9 5 N 0 0,0
16.02.2019 23:00:00 1,1 -4,2 0,8 3,7 5 3 9 5 N 0 0,0
16.02.2019 22:00:00 2,0 -3,9 0,8 3,7 0 0 10 5 N 0 0,0
16.02.2019 21:00:00 3,0 -3,6 0,8 3,7 5 3 8 5 N 0 0,0
16.02.2019 20:00:00 4,0 -3,8 0,8 3,7 3 2 9 5 NNE 0 0,0
16.02.2019 19:00:00 5,3 -3,5 0,8 3,7 5 3 9 5 N 0 0,0
16.02.2019 18:00:00 7,9 -4,9 0,8 3,7 3 2 8 4 N 0 0,0
16.02.2019 17:00:00 9,9 -4,1 0,8 3,6 3 1 9 5 N 48 0,0
16.02.2019 16:00:00 13,1 -4,6 0,8 3,7 4 2 9 5 N 60 0,0
16.02.2019 15:00:00 12,9 -2,6 0,8 3,6 2 1 6 3 NW 60 0,0
16.02.2019 14:00:00 14,2 -6,1 0,8 3,7 3 2 5 3 NNE 60 0,0
16.02.2019 13:00:00 14,7 -5,7 0,8 3,7 2 1 5 3 E 60 0,0
16.02.2019 12:00:00 12,8 -6,8 0,8 3,7 3 1 5 3 E 60 0,0
16.02.2019 11:00:00 8,1 -5,0 0,8 3,7 2 1 6 3 N 60 0,0
16.02.2019 10:00:00 3,9 -4,6 0,8 3,7 3 2 6 3 NNE 27 0,0
16.02.2019 09:00:00 -0,3 -5,3 0,8 3,7 3 2 8 4 NNE 0 0,0
16.02.2019 08:00:00 -0,8 -5,4 0,8 3,7 5 3 7 4 NNE 0 0,0
16.02.2019 07:00:00 -0,7 -5,3 0,8 3,7 5 3 8 4 N 0 0,0
16.02.2019 06:00:00 -0,7 -5,5 0,8 3,7 3 2 6 4 NW 0 0,0
16.02.2019 05:00:00 -0,4 -5,2 0,8 3,7 4 2 7 4 N 0 0,0
16.02.2019 04:00:00 0,2 -4,8 0,8 3,7 2 1 8 4 NNE 0 0,0
16.02.2019 03:00:00 0,3 -4,5 0,8 3,7 4 2 9 5 N 0 0,0
16.02.2019 02:00:00 0,8 -4,6 0,8 3,7 4 2 8 4 N 0 0,0
16.02.2019 01:00:00 0,7 -4,2 0,8 3,7 4 2 6 3 N 0 0,0
16.02.2019 00:00:00 0,8 -3,9 0,8 3,7 3 2 8 5 N 0 0,0
15.02.2019 23:00:00 1,5 -3,6 0,8 3,7 4 2 10 5 N 0 0,0
15.02.2019 22:00:00 2,2 -3,1 0,8 3,7 3 1 9 5 NNW 0 0,0
15.02.2019 21:00:00 2,9 -3,0 0,8 3,7 5 3 9 5 NNE 0 0,0
15.02.2019 20:00:00 3,9 -2,9 0,8 3,7 2 1 9 5 N 0 0,0
15.02.2019 19:00:00 4,6 -2,7 0,8 3,7 5 3 9 5 N 0 0,0
15.02.2019 18:00:00 7,0 -3,0 0,8 3,7 4 2 9 5 N 0 0,0
15.02.2019 17:00:00 9,9 -3,8 0,8 3,7 4 2 9 5 N 47 0,0
15.02.2019 16:00:00 12,9 -4,3 0,8 3,7 5 3 8 5 NNW 60 0,0
15.02.2019 15:00:00 13,8 -2,2 0,8 3,7 2 1 5 3 NNW 60 0,0
15.02.2019 14:00:00 13,9 -1,3 0,8 3,7 2 1 4 2 NNE 60 0,0
15.02.2019 13:00:00 15,8 -2,7 0,8 3,7 2 1 7 4 S 60 0,0
15.02.2019 12:00:00 10,6 -5,0 0,8 3,7 4 2 8 4 NNE 60 0,0
15.02.2019 11:00:00 9,1 -3,2 0,8 3,7 3 2 6 4 E 60 0,0
15.02.2019 10:00:00 3,9 -3,6 0,8 3,7 4 2 7 4 NNE 25 0,0
15.02.2019 09:00:00 0,2 -4,8 0,8 3,7 4 2 6 3 N 0 0,0
15.02.2019 08:00:00 -0,3 -4,6 0,8 3,7 2 1 8 4 NE 0 0,0
15.02.2019 07:00:00 -0,2 -4,6 0,8 3,7 4 2 7 4 N 0 0,0
15.02.2019 06:00:00 -0,2 -4,5 0,8 3,7 3 2 8 4 N 0 0,0
15.02.2019 05:00:00 0,0 -4,1 0,8 3,7 5 3 8 5 N 0 0,0
15.02.2019 04:00:00 0,2 -3,9 0,8 3,7 3 2 6 3 N 0 0,0
15.02.2019 03:00:00 -0,2 -4,1 0,7 3,7 2 1 7 4 NNW 0 0,0
15.02.2019 02:00:00 0,0 -3,7 0,8 3,7 5 3 9 5 N 0 0,0
15.02.2019 01:00:00 0,6 -3,7 0,8 3,7 5 3 10 5 NNE 0 0,0
15.02.2019 00:00:00 0,2 -3,4 0,8 3,7 3 2 7 4 NNW 0 0,0
14.02.2019 23:00:00 0,7 -3,0 0,8 3,7 0 0 8 5 N 0 0,0
14.02.2019 22:00:00 1,7 -2,8 0,7 3,7 5 3 8 4 N 0 0,0
14.02.2019 21:00:00 1,5 -2,5 0,8 3,7 4 2 8 5 N 0 0,0
14.02.2019 20:00:00 2,8 -2,5 0,8 3,7 5 3 9 5 N 0 0,0
14.02.2019 19:00:00 3,5 -2,3 0,8 3,7 3 1 9 5 NNE 0 0,0
14.02.2019 18:00:00 4,4 -1,8 0,8 3,7 6 3 8 4 N 0 0,0
14.02.2019 17:00:00 7,6 -1,6 0,8 3,7 4 2 10 5 NNW 46 0,0
14.02.2019 16:00:00 9,6 -1,5 0,8 3,7 2 1 5 3 WNW 60 0,0
14.02.2019 15:00:00 10,7 -0,5 0,8 3,7 0 0 5 3 N 60 0,0
14.02.2019 14:00:00 13,2 -0,8 0,8 3,7 3 1 6 3 SSW 60 0,0
14.02.2019 13:00:00 12,2 -4,5 0,7 3,7 2 1 5 3 ESE 60 0,0
14.02.2019 12:00:00 10,8 -4,1 0,8 3,7 0 0 6 3 N 60 0,0
14.02.2019 11:00:00 5,6 -3,5 0,7 3,7 3 2 7 4 NNE 60 0,0
14.02.2019 10:00:00 2,1 -3,6 0,7 3,7 0 0 5 3 N 25 0,0
14.02.2019 09:00:00 -1,5 -5,2 0,8 3,7 3 2 4 2 N 0 0,0
14.02.2019 08:00:00 -2,3 -5,6 0,8 3,7 4 2 6 3 NNW 0 0,0
14.02.2019 07:00:00 -2,8 -5,4 0,7 3,7 4 2 7 4 N 0 0,0
14.02.2019 06:00:00 -2,6 -5,7 0,7 3,7 4 2 7 4 N 0 0,0
14.02.2019 05:00:00 -2,5 -5,2 0,7 3,7 2 1 6 4 NE 0 0,0
14.02.2019 04:00:00 -2,5 -5,8 0,7 3,7 4 2 6 4 N 0 0,0
14.02.2019 03:00:00 -1,8 -5,5 0,7 3,7 5 3 7 4 NNW 0 0,0
14.02.2019 02:00:00 -1,9 -5,4 0,7 3,7 3 2 5 3 N 0 0,0
14.02.2019 01:00:00 -1,6 -4,8 0,7 3,7 4 2 6 3 N 0 0,0
14.02.2019 00:00:00 -1,1 -4,5 0,7 3,7 5 3 8 5 N 0 0,0
13.02.2019 23:00:00 -1,1 -3,9 0,7 3,7 4 2 6 4 N 0 0,0
13.02.2019 22:00:00 -0,6 -4,0 0,7 3,7 2 1 8 4 N 0 0,0
13.02.2019 21:00:00 -0,3 -3,0 0,7 3,7 4 2 7 4 N 0 0,0
13.02.2019 20:00:00 0,4 -2,7 0,8 3,7 4 2 7 4 N 0 0,0
13.02.2019 19:00:00 1,2 -2,4 0,7 3,7 4 2 7 4 N 0 0,0
13.02.2019 18:00:00 2,6 -1,6 0,7 3,7 5 3 10 5 N 0 0,0
13.02.2019 17:00:00 5,1 -1,8 0,7 3,7 4 2 7 4 NW 45 0,0
13.02.2019 16:00:00 8,0 -1,5 0,7 3,7 4 2 10 5 NNW 60 0,0
13.02.2019 15:00:00 8,9 -1,5 0,7 3,7 2 1 3 2 N 60 0,0
13.02.2019 14:00:00 11,0 -2,8 0,7 3,7 0 0 5 3 N 60 0,0
13.02.2019 13:00:00 8,9 -4,0 0,7 3,7 3 1 6 3 E 60 0,0
13.02.2019 12:00:00 5,3 -4,3 0,7 3,7 2 1 5 3 N 60 0,0
13.02.2019 11:00:00 3,9 -3,9 0,7 3,7 0 0 4 2 N 60 0,0
13.02.2019 10:00:00 -2,4 -5,2 0,7 3,7 3 2 6 3 N 24 0,0
13.02.2019 09:00:00 -5,8 -7,5 0,7 3,7 4 2 6 3 N 0 0,0
13.02.2019 08:00:00 -6,3 -8,1 0,7 3,7 2 1 5 3 N 0 0,0
13.02.2019 07:00:00 -6,1 -7,6 0,7 3,7 4 2 6 4 N 0 0,0
13.02.2019 06:00:00 -6,3 -8,3 0,7 3,7 0 0 4 2 N 0 0,0
13.02.2019 05:00:00 -6,0 -8,0 0,7 3,7 0 0 6 4 N 0 0,0
13.02.2019 04:00:00 -5,6 -7,6 0,7 3,7 4 2 6 3 N 0 0,0
13.02.2019 03:00:00 -6,0 -7,8 0,7 3,7 4 2 6 3 N 0 0,0
13.02.2019 02:00:00 -5,2 -7,5 0,7 3,7 3 1 10 5 NW 0 0,0
13.02.2019 01:00:00 -5,1 -6,9 0,7 3,7 5 3 8 4 N 0 0,0
13.02.2019 00:00:00 -4,5 -7,1 0,7 3,7 3 2 10 5 WSW 0 0,0
12.02.2019 23:00:00 -4,6 -6,4 0,7 3,7 6 3 8 4 NNW 0 0,0
12.02.2019 22:00:00 -4,2 -6,7 0,7 3,7 0 0 5 3 N 0 0,0
12.02.2019 21:00:00 -3,4 -5,9 0,7 3,7 0 0 8 4 N 0 0,0
12.02.2019 20:00:00 -2,7 -5,7 0,7 3,7 4 2 8 4 NW 0 0,0
12.02.2019 19:00:00 -1,8 -5,0 0,7 3,7 4 2 9 5 N 0 0,0
12.02.2019 18:00:00 -0,5 -5,3 0,7 3,7 6 3 16 8 NW 0 0,0
12.02.2019 17:00:00 0,8 -4,4 0,7 3,7 5 3 16 9 NW 44 0,0
12.02.2019 16:00:00 2,9 -3,9 0,7 3,7 4 2 8 5 WNW 60 0,0
12.02.2019 15:00:00 6,9 -5,8 0,7 3,7 3 1 12 6 SSW 60 0,0
12.02.2019 14:00:00 6,1 -5,9 0,7 3,7 6 3 11 6 S 60 0,0
12.02.2019 13:00:00 5,1 -6,8 0,7 3,7 6 3 23 12 S 60 0,0
12.02.2019 12:00:00 4,0 -6,3 0,7 3,7 2 1 7 4 SE 60 0,0
12.02.2019 11:00:00 -1,2 -6,4 0,7 3,7 3 2 8 4 NNE 60 0,0
12.02.2019 10:00:00 -4,3 -5,5 0,7 3,7 3 2 6 4 SSW 23 0,0
12.02.2019 09:00:00 -7,2 -8,7 0,7 3,7 2 1 4 2 NNW 0 0,0
12.02.2019 08:00:00 -7,3 -8,9 0,7 3,7 0 0 6 3 N 0 0,0
12.02.2019 07:00:00 -7,0 -8,7 0,7 3,7 2 1 6 3 N 0 0,0
12.02.2019 06:00:00 -6,4 -8,1 0,7 3,7 4 2 6 3 NNW 0 0,0
12.02.2019 05:00:00 -6,2 -8,0 0,7 3,7 0 0 6 3 N 0 0,0
12.02.2019 04:00:00 -5,4 -7,2 0,7 3,7 2 1 9 5 NE 0 0,0
12.02.2019 03:00:00 -4,6 -6,7 0,7 3,7 3 2 11 6 NNW 0 0,0
12.02.2019 02:00:00 -3,9 -5,6 0,7 3,7 5 3 13 7 NNW 0 0,0
12.02.2019 01:00:00 -3,1 -4,5 0,7 3,7 0 0 5 3 N 0 0,0
12.02.2019 00:00:00 -2,0 -3,3 0,7 3,7 0 0 8 5 N 0 0,0
11.02.2019 23:00:00 -1,4 -2,8 0,7 3,7 3 2 8 4 NNW 0 0,0
11.02.2019 22:00:00 -1,6 -2,6 0,7 3,7 0 0 3 2 N 0 0,0
11.02.2019 21:00:00 -2,2 -3,2 0,7 3,7 2 1 7 4 E 0 0,0
11.02.2019 20:00:00 -2,0 -3,7 0,7 3,7 5 3 13 7 WNW 0 0,0
11.02.2019 19:00:00 -1,5 -2,9 0,6 3,7 2 1 10 6 ESE 0 0,0
11.02.2019 18:00:00 -0,5 -2,1 0,7 3,7 4 2 22 12 WNW 0 0,0
11.02.2019 17:00:00 0,5 -1,6 0,7 3,7 10 5 24 13 SW 9 0,0
11.02.2019 16:00:00 1,0 -1,2 0,7 3,8 11 6 29 16 SSW 32 0,0

tt = Température de l'air
td = dewpoint
tt -20cm = Température de l'air -20cm
tt -100cm = Température de l'air -100cm
ff = Vitesse du vent
fx = gusts
dd = Direction du vent
sd = Ensoleillement
rr = Quantités de précipitations

stations d'obs. à proximité